logo

United by the hobby
of model aircraft flying

Promoting safe
radio model flying

Sharing the experience
of RC flying

Dedicated to the sport of model aviation

Meeting
Venue

Third Monday Each Month
Crown Point Civic Center
101 S East Street
Crown Point, IN 46307

Read More

email:
[javascript protected email address]

View our events calendar

2022

Weather Conditions

Elev 730 ft    41.19°N  87.16°W

63.0 °F
040°
5 m/h
Wind Variable Wind from NE

Current Conditions

Pressure 30.06 in
Visibility 10 miles
Clouds Clear
Dew Point 60.1 °F
Humidity 90 %
Rainfall 0.00 in
 
METAR KVPZ 160756Z AUTO 04004KT 10SM CLR 17/16 A3006 RMK AO2 SLP174 T01720156

Forecast

INFORMATION PROVIDED BY THE INDIANA STATE FORECAST - NATIONAL WEATHER SERVICE
Sunrise & Sunset
August 16, 2022
4:3 AM

::50 PM
High 83 | Low 65°F
August 17, 2022
4:3 AM

::50 PM
High | Low °F
 

our gallery

View All